Time;durP1;ratioP1;P1;durP2;ratioP2;P2;SDS_P1;SDS_P2;PMS_P1;PMS_P2;Temp;Humidity;BMP_temperature;BMP_pressure;BME280_temperature;BME280_humidity;BME280_pressure;Samples;Min_cycle;Max_cycle;Signal;HPM_P1;HPM_P2
2023/01/14 00:01:08;;;;;;;34.83;7.30;;;8.60;63.00;;;;;;5094481;28;20412;-72
2023/01/14 00:03:34;;;;;;;39.70;7.50;;;8.60;62.80;;;;;;5093819;28;20386;-72
2023/01/14 00:06:00;;;;;;;38.20;7.47;;;8.70;62.90;;;;;;5093676;28;20874;-73
2023/01/14 00:08:30;;;;;;;35.60;7.40;;;8.70;62.10;;;;;;5094008;28;20424;-74
2023/01/14 00:10:59;;;;;;;35.00;7.37;;;8.70;61.90;;;;;;5093649;28;20482;-74
2023/01/14 00:13:25;;;;;;;39.70;7.60;;;8.70;62.20;;;;;;5075381;28;20398;-74
2023/01/14 00:15:52;;;;;;;46.58;7.75;;;8.70;62.00;;;;;;5093579;28;20382;-72
2023/01/14 00:18:19;;;;;;;31.85;7.07;;;8.70;61.20;;;;;;5093674;28;20398;-73
2023/01/14 00:21:01;;;;;;;36.53;7.72;;;8.70;61.90;;;;;;5093212;28;20378;-73
2023/01/14 00:23:28;;;;;;;38.35;8.10;;;8.60;62.00;;;;;;5093265;28;20389;-73
2023/01/14 00:25:59;;;;;;;32.83;6.20;;;8.60;62.40;;;;;;5094166;28;20536;-74
2023/01/14 00:28:24;;;;;;;42.13;7.63;;;8.60;62.80;;;;;;5100858;28;20382;-72
2023/01/14 00:30:50;;;;;;;41.30;7.67;;;8.60;63.30;;;;;;5087390;28;20377;-72
2023/01/14 00:33:15;;;;;;;36.80;7.47;;;8.70;62.80;;;;;;5094958;28;20409;-73
2023/01/14 00:35:41;;;;;;;44.37;7.50;;;8.70;61.70;;;;;;5073724;28;20473;-73
2023/01/14 00:38:07;;;;;;;45.03;7.83;;;8.70;62.50;;;;;;5092987;28;20431;-74
2023/01/14 00:40:32;;;;;;;41.77;7.30;;;8.70;62.90;;;;;;5093074;28;20902;-75
2023/01/14 00:42:58;;;;;;;39.53;7.40;;;8.70;62.90;;;;;;5093717;28;20413;-73
2023/01/14 00:45:24;;;;;;;44.03;7.72;;;8.60;62.50;;;;;;5096180;28;20862;-74
2023/01/14 00:47:49;;;;;;;41.30;8.00;;;8.70;62.20;;;;;;5094699;28;20427;-74
2023/01/14 00:50:15;;;;;;;39.70;7.60;;;8.60;62.90;;;;;;5094132;28;20444;-73
2023/01/14 00:52:41;;;;;;;42.30;7.70;;;8.60;63.00;;;;;;5093909;28;20409;-75
2023/01/14 00:55:07;;;;;;;44.60;7.32;;;8.50;63.50;;;;;;5076768;28;20382;-73
2023/01/14 00:57:32;;;;;;;32.78;6.63;;;8.30;64.10;;;;;;5094712;28;20378;-73
2023/01/14 00:59:58;;;;;;;47.00;7.90;;;8.30;65.30;;;;;;5095242;28;20397;-73
2023/01/14 01:02:23;;;;;;;44.33;7.47;;;8.20;66.30;;;;;;5094627;28;20381;-73
2023/01/14 01:04:49;;;;;;;39.33;6.90;;;8.00;68.10;;;;;;5076615;28;20386;-72
2023/01/14 01:07:14;;;;;;;37.35;7.30;;;7.90;69.10;;;;;;5093695;28;20393;-73
2023/01/14 01:09:40;;;;;;;33.92;6.50;;;7.90;69.10;;;;;;5092648;28;20432;-72
2023/01/14 01:12:05;;;;;;;33.92;6.93;;;7.80;70.50;;;;;;5092132;28;20378;-73
2023/01/14 01:14:31;;;;;;;34.53;6.80;;;7.80;71.10;;;;;;5092004;28;20398;-73
2023/01/14 01:16:57;;;;;;;47.72;7.22;;;7.70;71.90;;;;;;5091975;28;20472;-72
2023/01/14 01:19:22;;;;;;;46.50;7.55;;;7.80;71.70;;;;;;5074407;28;20421;-72
2023/01/14 01:21:48;;;;;;;40.97;7.00;;;7.70;71.80;;;;;;5091902;28;20939;-71
2023/01/14 01:24:13;;;;;;;53.17;8.05;;;7.70;72.20;;;;;;5091579;28;20908;-72
2023/01/14 01:26:39;;;;;;;49.28;7.85;;;7.70;73.10;;;;;;5091969;28;20874;-72
2023/01/14 01:29:04;;;;;;;39.10;7.70;;;7.70;73.40;;;;;;5091952;28;20414;-72
2023/01/14 01:31:30;;;;;;;42.60;7.35;;;7.80;72.70;;;;;;5091717;28;20787;-72
2023/01/14 01:33:56;;;;;;;35.90;6.90;;;7.70;72.30;;;;;;5099002;28;20456;-71
2023/01/14 01:36:25;;;;;;;36.22;6.63;;;7.70;72.90;;;;;;5106708;28;20370;-73
2023/01/14 01:38:51;;;;;;;36.80;6.85;;;7.70;73.00;;;;;;5105718;28;20404;-73
2023/01/14 01:41:19;;;;;;;43.60;7.07;;;7.70;74.00;;;;;;5103903;28;20942;-75
2023/01/14 01:44:01;;;;;;;47.38;8.73;;;7.70;73.30;;;;;;5096605;28;20846;-73
2023/01/14 01:46:28;;;;;;;43.83;7.43;;;7.70;72.90;;;;;;5097118;28;20386;-73
2023/01/14 01:49:10;;;;;;;36.30;6.60;;;7.80;72.50;;;;;;5078441;28;20382;-73
2023/01/14 01:51:56;;;;;;;37.58;7.10;;;7.90;71.40;;;;;;5098614;28;20385;-73
2023/01/14 01:54:30;;;;;;;38.25;7.38;;;7.90;70.80;;;;;;5102330;28;20460;-74
2023/01/14 01:56:57;;;;;;;46.22;7.85;;;8.00;69.80;;;;;;5103744;28;20373;-74
2023/01/14 01:59:25;;;;;;;46.85;7.18;;;8.10;67.80;;;;;;5098010;28;20389;-74
2023/01/14 02:01:55;;;;;;;38.60;7.55;;;8.10;67.90;;;;;;5097023;28;20432;-73
2023/01/14 02:04:20;;;;;;;38.17;6.80;;;8.00;68.60;;;;;;5108043;28;20402;-74
2023/01/14 02:06:47;;;;;;;38.90;7.27;;;8.00;69.00;;;;;;5083366;28;20791;-71
2023/01/14 02:09:14;;;;;;;37.35;6.10;;;7.90;70.50;;;;;;5091480;28;21045;-73
2023/01/14 02:12:07;;;;;;;38.42;7.22;;;7.80;71.30;;;;;;5091213;28;20377;-72
2023/01/14 02:14:32;;;;;;;34.40;6.47;;;7.80;71.70;;;;;;5091215;28;20402;-72
2023/01/14 02:17:32;;;;;;;33.88;6.55;;;7.70;72.90;;;;;;5073238;28;20393;-72
2023/01/14 02:20:03;;;;;;;33.58;7.60;;;7.60;73.30;;;;;;5091870;28;20384;-72
2023/01/14 02:22:51;;;;;;;35.35;6.45;;;7.60;74.60;;;;;;5090598;28;20374;-71
2023/01/14 02:25:16;;;;;;;35.20;5.85;;;7.50;74.60;;;;;;5090611;28;20432;-72
2023/01/14 02:27:56;;;;;;;32.03;6.50;;;7.50;75.40;;;;;;5091095;28;20464;-72
2023/01/14 02:30:27;;;;;;;38.90;7.72;;;7.40;76.20;;;;;;5090963;28;20928;-72
2023/01/14 02:33:00;;;;;;;32.95;6.95;;;7.40;76.50;;;;;;5090289;28;20559;-71
2023/01/14 02:35:43;;;;;;;38.65;7.40;;;7.40;76.90;;;;;;5090584;28;20374;-73
2023/01/14 02:38:12;;;;;;;46.58;8.05;;;7.40;77.00;;;;;;5090472;28;20369;-73
2023/01/14 02:41:08;;;;;;;42.47;6.78;;;7.50;76.10;;;;;;5090755;28;20373;-73
2023/01/14 02:46:42;;;;;;;43.00;6.83;;;7.40;76.70;;;;;;5093344;28;20412;-72
2023/01/14 02:49:12;;;;;;;40.10;6.93;;;7.40;77.00;;;;;;5091016;28;20432;-73
2023/01/14 02:51:38;;;;;;;33.47;7.13;;;7.40;76.80;;;;;;5091268;28;20374;-72
2023/01/14 02:54:04;;;;;;;35.83;6.93;;;7.50;76.50;;;;;;5090658;28;20398;-72
2023/01/14 02:56:30;;;;;;;39.40;6.10;;;7.50;76.00;;;;;;5093527;28;20458;-73
2023/01/14 02:59:29;;;;;;;40.97;7.23;;;7.60;76.30;;;;;;5093153;28;20424;-71
2023/01/14 03:02:30;;;;;;;36.03;6.75;;;7.70;74.10;;;;;;5096545;28;20404;-73
2023/01/14 03:05:24;;;;;;;42.28;7.00;;;7.90;72.60;;;;;;5055133;28;20386;-72
2023/01/14 03:08:01;;;;;;;30.40;5.88;;;7.90;71.30;;;;;;5096501;28;20378;-72
2023/01/14 03:10:49;;;;;;;35.38;6.97;;;8.00;69.80;;;;;;5104839;28;20386;-72
2023/01/14 03:13:32;;;;;;;36.33;6.15;;;8.00;68.90;;;;;;5094557;28;20421;-71
2023/01/14 03:16:23;;;;;;;32.92;6.20;;;7.90;69.00;;;;;;5094419;28;20439;-73
2023/01/14 03:18:56;;;;;;;33.17;6.68;;;7.80;69.70;;;;;;5075854;28;20370;-72
2023/01/14 03:21:27;;;;;;;31.15;5.72;;;7.80;69.90;;;;;;5093864;28;20481;-72
2023/01/14 03:24:05;;;;;;;35.58;6.60;;;7.80;69.50;;;;;;5093855;28;20465;-72
2023/01/14 03:26:33;;;;;;;32.60;6.13;;;7.80;69.70;;;;;;5094659;28;20385;-73
2023/01/14 03:29:02;;;;;;;38.38;6.40;;;7.70;71.40;;;;;;5076289;28;20393;-73
2023/01/14 03:31:31;;;;;;;28.33;6.25;;;7.60;71.70;;;;;;5075705;28;20410;-72
2023/01/14 03:34:09;;;;;;;35.63;6.35;;;7.70;72.20;;;;;;5093669;28;20392;-72
2023/01/14 03:36:37;;;;;;;43.13;6.78;;;7.70;71.60;;;;;;5093892;28;20374;-73
2023/01/14 03:39:13;;;;;;;42.28;7.00;;;7.80;70.70;;;;;;5094082;28;20737;-71
2023/01/14 03:44:38;;;;;;;36.28;6.72;;;7.80;69.60;;;;;;5094519;28;20447;-71
2023/01/14 03:47:04;;;;;;;26.50;6.32;;;8.00;67.90;;;;;;5093953;28;20720;-71
2023/01/14 03:49:30;;;;;;;32.25;6.25;;;8.00;68.50;;;;;;5094066;28;20431;-71
2023/01/14 03:52:02;;;;;;;34.28;6.85;;;7.90;69.10;;;;;;5094018;28;20390;-72
2023/01/14 03:54:36;;;;;;;36.28;6.38;;;7.90;69.20;;;;;;5094678;28;20889;-73
2023/01/14 03:57:12;;;;;;;30.85;5.95;;;7.80;69.10;;;;;;5093421;28;20386;-71
2023/01/14 03:59:58;;;;;;;38.15;6.90;;;7.90;68.00;;;;;;5093267;28;20733;-71
2023/01/14 04:02:25;;;;;;;38.03;7.22;;;7.70;69.00;;;;;;5092628;28;20823;-71
2023/01/14 04:04:52;;;;;;;29.77;6.90;;;7.60;71.10;;;;;;5092664;28;20460;-71
2023/01/14 04:07:17;;;;;;;29.13;5.70;;;7.50;72.30;;;;;;5092750;28;20429;-72
2023/01/14 04:09:43;;;;;;;35.13;7.32;;;7.50;73.10;;;;;;5092828;28;20485;-71
2023/01/14 04:12:08;;;;;;;30.38;6.30;;;7.50;73.40;;;;;;5074287;28;20378;-72
2023/01/14 04:17:18;;;;;;;42.53;7.00;;;7.40;74.00;;;;;;5093006;28;20388;-72
2023/01/14 04:19:44;;;;;;;36.53;6.77;;;7.60;72.70;;;;;;5093215;28;20382;-72
2023/01/14 04:22:10;;;;;;;33.70;6.73;;;7.50;72.90;;;;;;5092501;28;20457;-71
2023/01/14 04:24:35;;;;;;;23.93;5.30;;;7.60;72.20;;;;;;5074458;28;20401;-73
2023/01/14 04:27:01;;;;;;;36.10;6.10;;;7.60;71.40;;;;;;5093289;28;20897;-73
2023/01/14 04:29:26;;;;;;;36.07;6.50;;;7.60;71.40;;;;;;5094170;28;20389;-71
2023/01/14 04:31:52;;;;;;;37.53;6.60;;;7.60;71.00;;;;;;5093788;28;20471;-71
2023/01/14 04:34:17;;;;;;;31.13;6.00;;;7.50;71.20;;;;;;5091954;28;20509;-71
2023/01/14 04:36:43;;;;;;;35.83;6.43;;;7.50;71.00;;;;;;5092240;28;20374;-71
2023/01/14 04:39:09;;;;;;;38.00;6.07;;;7.60;70.50;;;;;;5092325;28;20831;-71
2023/01/14 04:44:18;;;;;;;25.13;5.77;;;7.60;69.80;;;;;;5092678;28;20441;-72
2023/01/14 04:46:44;;;;;;;33.17;7.00;;;7.60;69.50;;;;;;5092523;28;20383;-73
2023/01/14 04:49:09;;;;;;;26.17;5.60;;;7.60;70.30;;;;;;5094894;28;20467;-73
2023/01/14 04:51:35;;;;;;;33.50;7.03;;;7.60;70.60;;;;;;5096297;28;20447;-72
2023/01/14 04:54:01;;;;;;;31.93;7.17;;;7.60;70.80;;;;;;5075480;28;21020;-72
2023/01/14 04:56:26;;;;;;;36.20;7.40;;;7.60;72.40;;;;;;5097321;28;20894;-71
2023/01/14 04:58:52;;;;;;;34.37;7.30;;;7.50;72.10;;;;;;5092741;28;20378;-72
2023/01/14 05:01:17;;;;;;;35.47;7.10;;;7.50;72.70;;;;;;5073818;28;20394;-72
2023/01/14 05:03:43;;;;;;;31.50;6.80;;;7.50;71.50;;;;;;5092559;28;20527;-72
2023/01/14 05:06:08;;;;;;;38.20;6.80;;;7.60;70.30;;;;;;5092381;28;20409;-73
2023/01/14 05:08:34;;;;;;;33.40;5.90;;;7.60;69.20;;;;;;5092092;28;20378;-72
2023/01/14 05:10:59;;;;;;;35.17;6.43;;;7.70;68.10;;;;;;5092530;28;20382;-72
2023/01/14 05:13:25;;;;;;;37.33;6.50;;;7.60;68.80;;;;;;5074234;28;20873;-72
2023/01/14 05:15:50;;;;;;;34.40;7.07;;;7.50;69.30;;;;;;5096835;28;20457;-72
2023/01/14 05:18:17;;;;;;;26.90;5.87;;;7.50;69.60;;;;;;5096329;28;20393;-71
2023/01/14 05:20:44;;;;;;;32.78;6.72;;;7.50;69.20;;;;;;5093721;28;20823;-71
2023/01/14 05:23:14;;;;;;;30.33;5.70;;;7.50;69.70;;;;;;5091890;28;20385;-73
2023/01/14 05:25:40;;;;;;;30.23;5.47;;;7.50;66.60;;;;;;5094267;28;20404;-72
2023/01/14 05:28:09;;;;;;;32.80;5.72;;;7.40;67.40;;;;;;5093438;28;20520;-71
2023/01/14 05:30:35;;;;;;;33.92;5.40;;;7.50;66.30;;;;;;5091278;28;20389;-71
2023/01/14 05:33:01;;;;;;;26.87;5.20;;;7.50;66.10;;;;;;5091059;28;20847;-72
2023/01/14 05:35:27;;;;;;;31.67;5.70;;;7.50;65.80;;;;;;5072770;28;20377;-73
2023/01/14 05:37:52;;;;;;;35.60;6.72;;;7.50;64.50;;;;;;5091211;28;20378;-72
2023/01/14 05:40:18;;;;;;;30.40;6.03;;;7.40;65.20;;;;;;5091371;28;20378;-71
2023/01/14 05:45:48;;;;;;;29.53;5.70;;;7.40;64.60;;;;;;5091033;28;20412;-72
2023/01/14 05:48:22;;;;;;;28.75;6.00;;;7.40;65.90;;;;;;5091016;28;20382;-72
2023/01/14 05:50:56;;;;;;;30.35;6.35;;;7.50;66.00;;;;;;5091055;28;20904;-71
2023/01/14 05:53:22;;;;;;;24.10;5.35;;;7.50;65.30;;;;;;5091056;28;20397;-71
2023/01/14 05:55:48;;;;;;;29.77;5.25;;;7.60;62.40;;;;;;5090694;28;20404;-72
2023/01/14 05:58:14;;;;;;;22.23;5.43;;;7.60;61.70;;;;;;5090788;28;20878;-73
2023/01/14 06:06:32;;;;;;;25.23;5.80;;;7.80;59.20;;;;;;5090804;28;20902;-71
2023/01/14 06:09:00;;;;;;;27.30;5.30;;;7.70;61.30;;;;;;5090764;28;20397;-71
2023/01/14 06:11:28;;;;;;;29.10;5.80;;;7.60;61.30;;;;;;5090423;28;20405;-71
2023/01/14 06:13:57;;;;;;;30.15;6.18;;;7.50;63.00;;;;;;5090456;28;20929;-73
2023/01/14 06:16:27;;;;;;;19.02;5.18;;;7.60;61.90;;;;;;5090984;28;20378;-73
2023/01/14 06:18:53;;;;;;;30.98;5.40;;;7.70;61.50;;;;;;5090843;28;20380;-73
2023/01/14 06:21:21;;;;;;;23.17;5.78;;;7.70;60.80;;;;;;5090496;28;20427;-72
2023/01/14 06:23:47;;;;;;;27.02;6.72;;;7.80;60.60;;;;;;5072596;28;20414;-72
2023/01/14 06:26:16;;;;;;;23.63;5.73;;;8.00;59.80;;;;;;5090667;28;20417;-73
2023/01/14 06:28:42;;;;;;;21.40;5.00;;;8.00;58.30;;;;;;5090721;28;20385;-73
2023/01/14 06:31:12;;;;;;;25.48;5.60;;;8.00;58.60;;;;;;5090705;28;20453;-72
2023/01/14 06:33:38;;;;;;;29.80;5.78;;;8.00;58.10;;;;;;5090745;28;20433;-72
2023/01/14 06:36:05;;;;;;;22.17;5.10;;;8.10;58.70;;;;;;5094152;28;20438;-73
2023/01/14 06:38:30;;;;;;;22.23;4.47;;;8.10;58.80;;;;;;5094433;28;20385;-72
2023/01/14 06:41:04;;;;;;;28.17;5.63;;;8.10;58.20;;;;;;5076144;28;20387;-72
2023/01/14 06:43:30;;;;;;;23.02;5.13;;;8.20;57.40;;;;;;5094732;28;20396;-72
2023/01/14 06:45:56;;;;;;;20.67;5.40;;;8.20;56.40;;;;;;5094394;28;20386;-73
2023/01/14 06:48:22;;;;;;;25.65;5.30;;;8.30;56.60;;;;;;5094314;28;20381;-72
2023/01/14 06:50:49;;;;;;;26.35;5.63;;;8.30;55.10;;;;;;5094253;28;20413;-72
2023/01/14 06:53:15;;;;;;;23.17;5.47;;;8.40;55.10;;;;;;5094073;28;20500;-72
2023/01/14 06:55:41;;;;;;;21.80;5.33;;;8.40;54.30;;;;;;5094159;28;20417;-72
2023/01/14 06:58:06;;;;;;;22.05;4.65;;;8.40;56.30;;;;;;5095041;28;20370;-72
2023/01/14 07:00:32;;;;;;;29.70;5.22;;;8.50;56.30;;;;;;5076919;28;20546;-72
2023/01/14 07:02:58;;;;;;;32.10;6.00;;;8.50;58.20;;;;;;5094295;28;20416;-72
2023/01/14 07:05:23;;;;;;;27.10;5.83;;;8.40;61.90;;;;;;5093806;28;20413;-72
2023/01/14 07:07:49;;;;;;;22.90;6.13;;;8.30;63.50;;;;;;5076038;28;20365;-74
2023/01/14 07:10:17;;;;;;;24.50;4.78;;;8.40;64.70;;;;;;5094284;28;20460;-73
2023/01/14 07:12:47;;;;;;;16.80;4.80;;;8.30;63.30;;;;;;5093860;28;20799;-73
2023/01/14 07:15:14;;;;;;;26.27;5.60;;;8.20;64.40;;;;;;5093785;28;20469;-73
2023/01/14 07:17:40;;;;;;;30.70;5.65;;;8.20;65.30;;;;;;5075590;28;20378;-73
2023/01/14 07:20:08;;;;;;;25.58;5.35;;;8.20;66.20;;;;;;5093691;28;20386;-73
2023/01/14 07:22:33;;;;;;;24.98;5.40;;;8.20;66.10;;;;;;5094093;28;20441;-72
2023/01/14 07:25:01;;;;;;;23.20;5.33;;;8.20;68.20;;;;;;5094264;28;20804;-72
2023/01/14 07:27:29;;;;;;;23.42;5.13;;;8.20;70.10;;;;;;5093431;28;20501;-72
2023/01/14 07:29:55;;;;;;;21.03;4.70;;;8.20;68.90;;;;;;5094126;28;20378;-72
2023/01/14 07:32:20;;;;;;;20.38;5.32;;;8.10;70.50;;;;;;5093007;28;20822;-73
2023/01/14 07:34:46;;;;;;;25.67;5.50;;;8.10;71.60;;;;;;5075682;28;20400;-73
2023/01/14 07:37:12;;;;;;;23.48;4.70;;;8.10;72.70;;;;;;5094368;28;20378;-72
2023/01/14 07:39:37;;;;;;;24.77;5.72;;;8.10;73.80;;;;;;5094416;28;20400;-72
2023/01/14 07:42:03;;;;;;;21.95;5.85;;;8.10;75.20;;;;;;5095411;28;20843;-72
2023/01/14 07:44:29;;;;;;;21.02;5.38;;;8.10;75.60;;;;;;5100332;28;20397;-72
2023/01/14 07:46:55;;;;;;;25.88;4.35;;;8.00;76.00;;;;;;5100726;28;20389;-72
2023/01/14 07:49:24;;;;;;;21.50;4.65;;;8.10;76.70;;;;;;5106138;28;20378;-73
2023/01/14 07:51:50;;;;;;;20.75;5.80;;;8.00;77.40;;;;;;5109380;28;20902;-75
2023/01/14 07:54:17;;;;;;;20.73;5.63;;;8.00;78.60;;;;;;5087524;28;20415;-76
2023/01/14 07:56:43;;;;;;;28.58;5.80;;;7.90;80.70;;;;;;5075798;28;20409;-76
2023/01/14 07:59:09;;;;;;;21.10;6.00;;;7.90;83.20;;;;;;5091584;28;20469;-75
2023/01/14 08:01:35;;;;;;;24.88;6.13;;;8.00;81.10;;;;;;5093562;28;20843;-75
2023/01/14 08:04:01;;;;;;;27.73;6.50;;;8.00;82.60;;;;;;5093627;28;20452;-75
2023/01/14 08:06:27;;;;;;;20.15;6.40;;;7.90;84.10;;;;;;5075468;28;20462;-76
2023/01/14 08:08:52;;;;;;;17.67;5.63;;;7.90;84.60;;;;;;5086355;28;20414;-76
2023/01/14 08:11:18;;;;;;;29.20;6.03;;;7.90;84.50;;;;;;5092347;28;20855;-75
2023/01/14 08:13:43;;;;;;;21.70;5.05;;;7.90;84.70;;;;;;5094000;28;20782;-74
2023/01/14 08:16:09;;;;;;;26.38;5.75;;;8.00;82.40;;;;;;5096573;28;20425;-76
2023/01/14 08:18:36;;;;;;;26.88;5.88;;;8.00;83.70;;;;;;5082613;28;20417;-74
2023/01/14 08:21:04;;;;;;;19.95;5.10;;;7.90;85.30;;;;;;5085186;28;20468;-74
2023/01/14 08:23:31;;;;;;;29.55;5.60;;;7.90;86.40;;;;;;5103791;28;20732;-76
2023/01/14 08:26:05;;;;;;;28.42;5.88;;;7.90;86.90;;;;;;5096161;28;20871;-75
2023/01/14 08:28:32;;;;;;;20.20;5.30;;;8.00;85.40;;;;;;5094035;28;20394;-74
2023/01/14 08:31:17;;;;;;;21.25;6.80;;;8.00;86.40;;;;;;5075057;28;20475;-76
2023/01/14 08:33:44;;;;;;;21.60;5.30;;;8.10;86.00;;;;;;5092001;28;20709;-74
2023/01/14 08:36:15;;;;;;;25.70;5.83;;;8.10;83.90;;;;;;5075180;28;20388;-74
2023/01/14 08:38:44;;;;;;;19.40;5.93;;;8.20;81.90;;;;;;5093916;28;20390;-73
2023/01/14 08:41:12;;;;;;;28.42;5.68;;;8.20;84.00;;;;;;5093384;28;20374;-72
2023/01/14 08:43:38;;;;;;;22.90;5.93;;;8.20;85.20;;;;;;5093129;28;20484;-72
2023/01/14 08:46:06;;;;;;;30.53;6.30;;;8.20;81.90;;;;;;5093289;28;20390;-72
2023/01/14 08:48:32;;;;;;;26.90;7.20;;;8.20;82.50;;;;;;5093451;28;20818;-72
2023/01/14 08:51:06;;;;;;;22.95;6.28;;;8.20;80.50;;;;;;5094897;28;20513;-72
2023/01/14 08:53:33;;;;;;;20.45;7.18;;;8.20;80.30;;;;;;5094214;28;20405;-73
2023/01/14 08:55:59;;;;;;;27.33;8.83;;;8.20;81.00;;;;;;5093324;28;20373;-72
2023/01/14 08:58:25;;;;;;;23.48;8.25;;;8.30;82.40;;;;;;5092331;28;20440;-73
2023/01/14 09:00:59;;;;;;;30.92;9.02;;;8.30;81.80;;;;;;5092248;28;20535;-72
2023/01/14 09:03:27;;;;;;;30.10;6.75;;;8.30;80.30;;;;;;5091793;28;20811;-72
2023/01/14 09:06:09;;;;;;;24.95;7.97;;;8.30;80.10;;;;;;5091760;28;20386;-73
2023/01/14 09:17:05;;;;;;;26.90;6.45;;;8.50;74.90;;;;;;5093051;28;20462;-71
2023/01/14 09:19:36;;;;;;;24.80;6.82;;;8.50;76.70;;;;;;5074578;28;20390;-73
2023/01/14 09:22:03;;;;;;;25.40;6.90;;;8.50;76.60;;;;;;5093180;28;20388;-73
2023/01/14 09:24:29;;;;;;;21.08;6.45;;;8.60;75.80;;;;;;5074706;28;20882;-71
2023/01/14 09:26:54;;;;;;;17.17;6.10;;;8.60;75.10;;;;;;5092282;28;20386;-72
2023/01/14 09:29:20;;;;;;;21.10;6.47;;;8.60;75.50;;;;;;5092211;28;20423;-72
2023/01/14 09:31:45;;;;;;;19.37;6.37;;;8.60;74.90;;;;;;5092128;28;20394;-71
2023/01/14 09:34:11;;;;;;;17.20;6.90;;;8.60;75.30;;;;;;5095818;28;20417;-71
2023/01/14 09:36:37;;;;;;;22.23;7.47;;;8.60;76.10;;;;;;5099419;28;20381;-71
2023/01/14 09:39:02;;;;;;;20.30;6.03;;;8.80;74.90;;;;;;5091698;28;20378;-71
2023/01/14 09:41:32;;;;;;;19.50;5.90;;;8.80;73.70;;;;;;5090987;28;20389;-71
2023/01/14 09:44:00;;;;;;;17.10;5.82;;;8.80;72.30;;;;;;5090979;28;20455;-71
2023/01/14 09:46:27;;;;;;;21.65;6.07;;;8.80;74.20;;;;;;5072976;28;20878;-70
2023/01/14 09:48:59;;;;;;;14.52;5.10;;;8.80;73.90;;;;;;5091136;28;20435;-71
2023/01/14 09:51:34;;;;;;;14.85;6.00;;;8.90;72.90;;;;;;5090943;28;20460;-71
2023/01/14 09:54:38;;;;;;;15.70;6.10;;;9.00;72.40;;;;;;5091209;28;20405;-71
2023/01/14 09:57:38;;;;;;;14.13;6.55;;;9.00;72.50;;;;;;5091032;28;20384;-71
2023/01/14 10:00:13;;;;;;;13.50;5.13;;;9.10;73.20;;;;;;5057824;28;20378;-71
2023/01/14 10:03:04;;;;;;;15.35;4.78;;;9.10;71.10;;;;;;5090855;28;20423;-72
2023/01/14 10:05:33;;;;;;;15.88;6.20;;;9.10;69.50;;;;;;5090891;28;20916;-71
2023/01/14 10:08:05;;;;;;;14.35;5.53;;;9.10;72.40;;;;;;5090972;28;20417;-70
2023/01/14 10:10:35;;;;;;;12.07;3.80;;;9.20;72.10;;;;;;5095089;28;20775;-71
2023/01/14 10:13:07;;;;;;;13.27;4.40;;;9.20;72.10;;;;;;5094720;28;20413;-70
2023/01/14 10:15:40;;;;;;;9.38;4.22;;;9.20;73.20;;;;;;5095573;28;20722;-71
2023/01/14 10:18:34;;;;;;;14.60;3.78;;;9.20;75.20;;;;;;5077250;28;20414;-71
2023/01/14 10:21:03;;;;;;;7.57;2.95;;;9.20;76.60;;;;;;5073313;28;20435;-71
2023/01/14 10:23:33;;;;;;;8.20;3.15;;;9.10;79.10;;;;;;5095238;28;20382;-71
2023/01/14 10:26:01;;;;;;;8.52;2.70;;;9.10;78.70;;;;;;5094853;28;20401;-70
2023/01/14 10:28:28;;;;;;;11.95;3.30;;;9.10;80.00;;;;;;5095404;28;20427;-69
2023/01/14 10:30:56;;;;;;;6.93;3.40;;;9.10;82.80;;;;;;5095593;28;20435;-73
2023/01/14 10:33:23;;;;;;;5.15;2.75;;;9.10;83.80;;;;;;5095439;28;20875;-71
2023/01/14 10:36:04;;;;;;;6.68;2.97;;;9.10;84.20;;;;;;5096647;28;20395;-72
2023/01/14 10:38:30;;;;;;;11.05;4.22;;;9.10;86.70;;;;;;5099459;28;20370;-72
2023/01/14 10:41:05;;;;;;;7.67;3.00;;;9.00;90.00;;;;;;5099759;28;20462;-72
2023/01/14 10:43:50;;;;;;;6.03;2.30;;;9.00;89.20;;;;;;5099307;28;20472;-72
2023/01/14 10:46:18;;;;;;;6.78;3.40;;;9.10;90.40;;;;;;5098913;28;20378;-72
2023/01/14 10:48:53;;;;;;;7.57;2.30;;;9.10;90.50;;;;;;5097001;28;20469;-72
2023/01/14 10:51:47;;;;;;;6.63;2.80;;;9.00;92.50;;;;;;5097480;28;20381;-71
2023/01/14 10:54:24;;;;;;;8.05;3.00;;;9.10;94.00;;;;;;5095930;28;20397;-71
2023/01/14 10:56:59;;;;;;;7.38;2.58;;;9.10;95.30;;;;;;5096043;28;20850;-72
2023/01/14 10:59:30;;;;;;;9.50;2.95;;;9.20;93.30;;;;;;5095405;28;20386;-72
2023/01/14 11:01:56;;;;;;;7.40;2.58;;;9.10;95.30;;;;;;5075560;28;20396;-71
2023/01/14 11:04:27;;;;;;;7.25;3.38;;;9.10;97.20;;;;;;5093718;28;20378;-72
2023/01/14 11:06:53;;;;;;;8.15;3.10;;;9.10;99.50;;;;;;5093973;28;20396;-71
2023/01/14 11:09:24;;;;;;;5.93;2.70;;;9.10;99.90;;;;;;5094103;28;20390;-71
2023/01/14 11:11:49;;;;;;;7.63;3.45;;;9.00;99.90;;;;;;5093437;28;20378;-71
2023/01/14 11:14:24;;;;;;;6.88;3.13;;;9.10;99.90;;;;;;5093802;28;20802;-71
2023/01/14 11:16:50;;;;;;;9.63;3.03;;;9.10;99.90;;;;;;5094015;28;20382;-71
2023/01/14 11:19:15;;;;;;;13.30;3.22;;;9.20;99.90;;;;;;5094401;28;20393;-71
2023/01/14 11:21:50;;;;;;;8.23;3.30;;;9.10;99.90;;;;;;5093437;28;20377;-72
2023/01/14 11:24:31;;;;;;;6.20;2.78;;;9.10;99.90;;;;;;5093334;28;20398;-71
2023/01/14 11:27:17;;;;;;;11.07;3.03;;;9.10;99.90;;;;;;5093686;28;20386;-71
2023/01/14 11:29:55;;;;;;;9.50;3.05;;;9.20;99.90;;;;;;5093742;28;20385;-70
2023/01/14 11:32:28;;;;;;;5.82;2.50;;;9.20;99.90;;;;;;5093652;28;20380;-72
2023/01/14 11:34:59;;;;;;;8.05;2.30;;;9.20;99.90;;;;;;5093408;28;20409;-72
2023/01/14 11:37:32;;;;;;;12.73;3.58;;;9.30;99.90;;;;;;5093430;28;20413;-72
2023/01/14 11:39:59;;;;;;;6.13;3.00;;;9.20;99.90;;;;;;5093275;28;20389;-72
2023/01/14 11:42:37;;;;;;;8.63;3.30;;;9.20;99.90;;;;;;5092802;28;20389;-72
2023/01/14 11:45:11;;;;;;;9.45;3.90;;;9.30;99.90;;;;;;5093118;28;20881;-72
2023/01/14 11:47:52;;;;;;;11.67;4.03;;;9.30;99.90;;;;;;5093095;28;20477;-71
2023/01/14 11:50:25;;;;;;;10.00;3.45;;;9.30;99.90;;;;;;5093499;28;20866;-72
2023/01/14 11:53:01;;;;;;;7.70;3.35;;;9.30;99.90;;;;;;5092739;28;20386;-72
2023/01/14 11:55:30;;;;;;;8.95;3.75;;;9.30;99.90;;;;;;5093278;28;20401;-71
2023/01/14 11:58:12;;;;;;;7.60;3.40;;;9.30;99.90;;;;;;5093257;28;20377;-71
2023/01/14 12:00:39;;;;;;;7.85;2.60;;;9.40;99.90;;;;;;5095656;28;20474;-72
2023/01/14 12:03:11;;;;;;;12.90;2.75;;;9.40;99.90;;;;;;5104060;28;20378;-71
2023/01/14 12:05:39;;;;;;;5.15;3.00;;;9.40;99.90;;;;;;5103595;28;20428;-72
2023/01/14 12:08:14;;;;;;;9.77;2.72;;;9.40;99.90;;;;;;5092884;28;20397;-72
2023/01/14 12:10:44;;;;;;;6.60;2.88;;;9.50;99.90;;;;;;5093451;28;20468;-71
2023/01/14 12:19:14;;;;;;;5.33;2.47;;;9.60;99.90;;;;;;5092720;28;20377;-71
2023/01/14 12:22:07;;;;;;;4.03;2.10;;;9.50;99.90;;;;;;5092134;28;20386;-72
2023/01/14 12:24:51;;;;;;;7.35;2.90;;;9.50;99.90;;;;;;5093572;28;20394;-71
2023/01/14 12:27:44;;;;;;;7.93;2.90;;;9.60;99.90;;;;;;5093827;28;20489;-72
2023/01/14 12:30:24;;;;;;;5.75;2.40;;;9.70;99.90;;;;;;5092802;28;20413;-71
2023/01/14 12:33:29;;;;;;;7.18;2.90;;;9.70;99.90;;;;;;5092091;28;20371;-71
2023/01/14 12:36:17;;;;;;;6.22;2.20;;;9.70;99.90;;;;;;5088053;28;20395;-72
2023/01/14 12:47:34;;;;;;;5.55;2.83;;;9.80;99.90;;;;;;5091994;28;20774;-71
2023/01/14 12:50:03;;;;;;;5.55;2.03;;;9.90;99.90;;;;;;5091726;28;20394;-72
2023/01/14 12:52:32;;;;;;;2.88;1.65;;;9.90;99.90;;;;;;5091662;28;20902;-71
2023/01/14 12:54:59;;;;;;;2.40;1.80;;;9.90;99.90;;;;;;5073322;28;20485;-71
2023/01/14 12:57:26;;;;;;;3.47;2.10;;;9.90;99.90;;;;;;5091681;28;20405;-71
2023/01/14 12:59:56;;;;;;;4.57;1.75;;;9.90;99.90;;;;;;5092136;28;20378;-70
2023/01/14 13:02:30;;;;;;;4.65;2.67;;;9.90;99.90;;;;;;5073327;28;20465;-72
2023/01/14 13:05:06;;;;;;;4.00;1.67;;;9.90;99.90;;;;;;5091596;28;20404;-73
2023/01/14 13:07:44;;;;;;;3.50;1.85;;;10.00;99.90;;;;;;5073485;28;20455;-71
2023/01/14 13:10:21;;;;;;;3.47;1.77;;;9.90;99.90;;;;;;5091772;28;20374;-72
2023/01/14 13:12:48;;;;;;;3.28;2.00;;;9.90;99.90;;;;;;5091145;28;20390;-71
2023/01/14 13:15:19;;;;;;;2.35;1.58;;;9.90;99.90;;;;;;5091600;28;20378;-72
2023/01/14 13:18:00;;;;;;;2.80;1.80;;;9.90;99.90;;;;;;5073233;28;20401;-72
2023/01/14 13:20:28;;;;;;;2.13;1.55;;;9.80;99.90;;;;;;5091355;28;20440;-71
2023/01/14 13:22:55;;;;;;;4.10;1.38;;;9.90;99.90;;;;;;5091760;28;20374;-72
2023/01/14 13:25:44;;;;;;;5.25;2.10;;;9.80;99.90;;;;;;5091861;28;20759;-72
2023/01/14 13:28:12;;;;;;;4.35;1.90;;;9.90;99.90;;;;;;5073677;28;20965;-71
2023/01/14 13:30:53;;;;;;;2.25;1.70;;;9.90;99.90;;;;;;5094143;28;20508;-72
2023/01/14 13:33:32;;;;;;;5.20;2.15;;;9.90;99.90;;;;;;5095046;28;20754;-72
2023/01/14 13:36:09;;;;;;;2.80;1.35;;;9.90;99.90;;;;;;5095980;28;20371;-72
2023/01/14 13:39:03;;;;;;;4.45;2.25;;;9.90;99.90;;;;;;5097058;28;20381;-72
2023/01/14 13:41:47;;;;;;;3.95;1.67;;;9.80;99.90;;;;;;5092513;28;20465;-70
2023/01/14 13:44:25;;;;;;;3.72;2.00;;;9.90;99.90;;;;;;5090396;28;20394;-70
2023/01/14 13:46:55;;;;;;;2.45;1.60;;;9.90;99.90;;;;;;5091047;28;20378;-71
2023/01/14 13:49:38;;;;;;;2.33;2.00;;;9.90;99.90;;;;;;5090733;28;20389;-70